sensor_id;sensor_type;location;lat;lon;timestamp;temperature;humidity
43647;DHT22;56152;49.996;18.980;2022-12-29T00:03:57;3.10;88.80
43647;DHT22;56152;49.996;18.980;2022-12-29T00:09:04;3.20;88.70
43647;DHT22;56152;49.996;18.980;2022-12-29T00:14:08;3.10;88.70
43647;DHT22;56152;49.996;18.980;2022-12-29T00:19:29;3.10;88.80
43647;DHT22;56152;49.996;18.980;2022-12-29T00:24:48;3.10;88.90
43647;DHT22;56152;49.996;18.980;2022-12-29T00:30:16;3.10;88.30
43647;DHT22;56152;49.996;18.980;2022-12-29T00:35:41;3.10;88.90
43647;DHT22;56152;49.996;18.980;2022-12-29T00:40:46;3.10;88.80
43647;DHT22;56152;49.996;18.980;2022-12-29T00:46:11;3.10;88.80
43647;DHT22;56152;49.996;18.980;2022-12-29T00:51:15;3.20;89.00
43647;DHT22;56152;49.996;18.980;2022-12-29T00:56:17;3.20;88.90
43647;DHT22;56152;49.996;18.980;2022-12-29T01:01:19;3.10;88.80
43647;DHT22;56152;49.996;18.980;2022-12-29T01:06:24;3.20;89.00
43647;DHT22;56152;49.996;18.980;2022-12-29T01:11:26;3.20;89.00
43647;DHT22;56152;49.996;18.980;2022-12-29T01:16:28;3.30;88.90
43647;DHT22;56152;49.996;18.980;2022-12-29T01:21:33;3.40;88.50
43647;DHT22;56152;49.996;18.980;2022-12-29T01:26:35;3.40;88.20
43647;DHT22;56152;49.996;18.980;2022-12-29T01:31:42;3.40;88.20
43647;DHT22;56152;49.996;18.980;2022-12-29T01:36:45;3.40;88.40
43647;DHT22;56152;49.996;18.980;2022-12-29T01:41:47;3.50;88.30
43647;DHT22;56152;49.996;18.980;2022-12-29T01:46:51;3.50;88.20
43647;DHT22;56152;49.996;18.980;2022-12-29T01:51:57;3.50;88.40
43647;DHT22;56152;49.996;18.980;2022-12-29T01:57:02;3.50;88.40
43647;DHT22;56152;49.996;18.980;2022-12-29T02:02:06;3.40;88.50
43647;DHT22;56152;49.996;18.980;2022-12-29T02:07:14;3.40;88.70
43647;DHT22;56152;49.996;18.980;2022-12-29T02:12:20;3.40;88.90
43647;DHT22;56152;49.996;18.980;2022-12-29T02:17:59;3.30;88.90
43647;DHT22;56152;49.996;18.980;2022-12-29T02:23:30;3.30;88.90
43647;DHT22;56152;49.996;18.980;2022-12-29T02:29:09;3.30;88.90
43647;DHT22;56152;49.996;18.980;2022-12-29T02:34:24;3.20;89.00
43647;DHT22;56152;49.996;18.980;2022-12-29T02:39:40;3.20;89.20
43647;DHT22;56152;49.996;18.980;2022-12-29T02:44:52;3.10;89.60
43647;DHT22;56152;49.996;18.980;2022-12-29T02:50:06;3.10;89.70
43647;DHT22;56152;49.996;18.980;2022-12-29T02:55:10;3.00;89.70
43647;DHT22;56152;49.996;18.980;2022-12-29T03:00:14;3.00;89.80
43647;DHT22;56152;49.996;18.980;2022-12-29T03:05:25;2.90;90.00
43647;DHT22;56152;49.996;18.980;2022-12-29T03:10:41;2.80;90.10
43647;DHT22;56152;49.996;18.980;2022-12-29T03:15:58;2.70;90.20
43647;DHT22;56152;49.996;18.980;2022-12-29T03:21:10;2.60;90.30
43647;DHT22;56152;49.996;18.980;2022-12-29T03:26:14;2.60;90.30
43647;DHT22;56152;49.996;18.980;2022-12-29T03:31:19;2.50;90.30
43647;DHT22;56152;49.996;18.980;2022-12-29T03:36:30;2.50;90.40
43647;DHT22;56152;49.996;18.980;2022-12-29T03:41:34;2.40;90.40
43647;DHT22;56152;49.996;18.980;2022-12-29T03:46:37;2.30;90.50
43647;DHT22;56152;49.996;18.980;2022-12-29T03:51:41;2.30;90.50
43647;DHT22;56152;49.996;18.980;2022-12-29T03:56:47;2.20;90.50
43647;DHT22;56152;49.996;18.980;2022-12-29T04:01:49;2.20;90.60
43647;DHT22;56152;49.996;18.980;2022-12-29T04:06:55;2.10;90.70
43647;DHT22;56152;49.996;18.980;2022-12-29T04:11:57;2.10;90.60
43647;DHT22;56152;49.996;18.980;2022-12-29T04:16:59;2.00;90.60
43647;DHT22;56152;49.996;18.980;2022-12-29T04:22:04;1.90;90.60
43647;DHT22;56152;49.996;18.980;2022-12-29T04:27:06;1.70;90.70
43647;DHT22;56152;49.996;18.980;2022-12-29T04:32:09;1.70;90.90
43647;DHT22;56152;49.996;18.980;2022-12-29T04:37:13;1.80;90.90
43647;DHT22;56152;49.996;18.980;2022-12-29T04:42:15;1.80;90.80
43647;DHT22;56152;49.996;18.980;2022-12-29T04:47:21;1.90;90.60
43647;DHT22;56152;49.996;18.980;2022-12-29T04:52:25;1.80;90.70
43647;DHT22;56152;49.996;18.980;2022-12-29T04:57:29;1.70;90.80
43647;DHT22;56152;49.996;18.980;2022-12-29T05:02:31;1.60;90.80
43647;DHT22;56152;49.996;18.980;2022-12-29T05:07:34;1.70;90.90
43647;DHT22;56152;49.996;18.980;2022-12-29T05:12:37;1.80;91.00
43647;DHT22;56152;49.996;18.980;2022-12-29T05:17:40;1.70;91.10
43647;DHT22;56152;49.996;18.980;2022-12-29T05:22:44;1.80;91.20
43647;DHT22;56152;49.996;18.980;2022-12-29T05:27:46;2.00;91.20
43647;DHT22;56152;49.996;18.980;2022-12-29T05:32:48;2.10;91.00
43647;DHT22;56152;49.996;18.980;2022-12-29T05:37:51;2.20;91.00
43647;DHT22;56152;49.996;18.980;2022-12-29T05:42:53;2.30;91.00
43647;DHT22;56152;49.996;18.980;2022-12-29T05:47:55;2.40;91.00
43647;DHT22;56152;49.996;18.980;2022-12-29T05:52:59;2.60;91.00
43647;DHT22;56152;49.996;18.980;2022-12-29T05:58:04;2.70;90.80
43647;DHT22;56152;49.996;18.980;2022-12-29T06:03:07;2.80;90.80
43647;DHT22;56152;49.996;18.980;2022-12-29T06:08:10;2.90;90.70
43647;DHT22;56152;49.996;18.980;2022-12-29T06:13:13;3.20;90.40
43647;DHT22;56152;49.996;18.980;2022-12-29T06:18:22;3.30;90.00
43647;DHT22;56152;49.996;18.980;2022-12-29T06:23:28;3.40;89.90
43647;DHT22;56152;49.996;18.980;2022-12-29T06:28:37;3.50;90.00
43647;DHT22;56152;49.996;18.980;2022-12-29T06:33:39;3.60;90.10
43647;DHT22;56152;49.996;18.980;2022-12-29T06:38:44;3.60;90.00
43647;DHT22;56152;49.996;18.980;2022-12-29T06:43:46;3.80;90.00
43647;DHT22;56152;49.996;18.980;2022-12-29T06:48:48;3.90;89.80
43647;DHT22;56152;49.996;18.980;2022-12-29T06:53:52;4.20;89.20
43647;DHT22;56152;49.996;18.980;2022-12-29T06:58:54;4.30;88.80
43647;DHT22;56152;49.996;18.980;2022-12-29T07:03:56;4.40;88.70
43647;DHT22;56152;49.996;18.980;2022-12-29T07:09:00;4.60;88.50
43647;DHT22;56152;49.996;18.980;2022-12-29T07:14:03;4.70;88.70
43647;DHT22;56152;49.996;18.980;2022-12-29T07:19:05;4.80;88.70
43647;DHT22;56152;49.996;18.980;2022-12-29T07:24:10;4.80;88.70
43647;DHT22;56152;49.996;18.980;2022-12-29T07:29:25;4.80;88.70
43647;DHT22;56152;49.996;18.980;2022-12-29T07:34:28;4.90;88.60
43647;DHT22;56152;49.996;18.980;2022-12-29T07:39:34;5.00;88.40
43647;DHT22;56152;49.996;18.980;2022-12-29T07:44:38;5.20;88.00
43647;DHT22;56152;49.996;18.980;2022-12-29T07:49:42;5.30;87.50
43647;DHT22;56152;49.996;18.980;2022-12-29T07:54:46;5.40;87.50
43647;DHT22;56152;49.996;18.980;2022-12-29T07:59:48;5.40;87.60
43647;DHT22;56152;49.996;18.980;2022-12-29T08:04:50;5.40;87.60
43647;DHT22;56152;49.996;18.980;2022-12-29T08:09:58;5.50;87.70
43647;DHT22;56152;49.996;18.980;2022-12-29T08:15:00;5.50;87.70
43647;DHT22;56152;49.996;18.980;2022-12-29T08:20:04;5.60;87.60
43647;DHT22;56152;49.996;18.980;2022-12-29T08:25:08;5.70;87.40
43647;DHT22;56152;49.996;18.980;2022-12-29T08:30:19;5.70;87.30
43647;DHT22;56152;49.996;18.980;2022-12-29T08:35:22;5.80;87.10
43647;DHT22;56152;49.996;18.980;2022-12-29T08:40:34;5.90;86.70
43647;DHT22;56152;49.996;18.980;2022-12-29T08:45:36;6.00;86.50
43647;DHT22;56152;49.996;18.980;2022-12-29T08:50:38;6.00;86.20
43647;DHT22;56152;49.996;18.980;2022-12-29T08:55:42;6.00;86.10
43647;DHT22;56152;49.996;18.980;2022-12-29T09:00:44;6.10;86.30
43647;DHT22;56152;49.996;18.980;2022-12-29T09:05:49;6.10;86.40
43647;DHT22;56152;49.996;18.980;2022-12-29T09:10:52;6.20;86.40
43647;DHT22;56152;49.996;18.980;2022-12-29T09:15:58;6.30;86.30
43647;DHT22;56152;49.996;18.980;2022-12-29T09:21:02;6.50;86.30
43647;DHT22;56152;49.996;18.980;2022-12-29T09:26:07;6.70;85.60
43647;DHT22;56152;49.996;18.980;2022-12-29T09:31:09;6.70;85.30
43647;DHT22;56152;49.996;18.980;2022-12-29T09:36:12;6.60;85.50
43647;DHT22;56152;49.996;18.980;2022-12-29T09:41:20;6.60;85.90
43647;DHT22;56152;49.996;18.980;2022-12-29T09:46:28;7.10;85.60
43647;DHT22;56152;49.996;18.980;2022-12-29T09:51:31;7.50;84.50
43647;DHT22;56152;49.996;18.980;2022-12-29T09:56:40;7.60;84.10
43647;DHT22;56152;49.996;18.980;2022-12-29T10:01:46;7.60;84.20
43647;DHT22;56152;49.996;18.980;2022-12-29T10:06:57;7.60;84.30
43647;DHT22;56152;49.996;18.980;2022-12-29T10:12:15;7.60;84.40
43647;DHT22;56152;49.996;18.980;2022-12-29T10:17:26;7.60;84.30
43647;DHT22;56152;49.996;18.980;2022-12-29T10:22:40;7.70;83.50
43647;DHT22;56152;49.996;18.980;2022-12-29T10:27:49;7.70;84.30
43647;DHT22;56152;49.996;18.980;2022-12-29T10:32:54;7.70;84.40
43647;DHT22;56152;49.996;18.980;2022-12-29T10:38:02;7.60;84.50
43647;DHT22;56152;49.996;18.980;2022-12-29T10:43:20;7.50;84.90
43647;DHT22;56152;49.996;18.980;2022-12-29T10:48:27;7.70;85.10
43647;DHT22;56152;49.996;18.980;2022-12-29T10:53:36;7.80;84.70
43647;DHT22;56152;49.996;18.980;2022-12-29T10:58:42;7.90;84.70
43647;DHT22;56152;49.996;18.980;2022-12-29T11:03:51;8.10;85.00
43647;DHT22;56152;49.996;18.980;2022-12-29T11:08:58;8.40;83.80
43647;DHT22;56152;49.996;18.980;2022-12-29T11:14:11;8.60;83.50
43647;DHT22;56152;49.996;18.980;2022-12-29T11:19:21;8.70;83.40
43647;DHT22;56152;49.996;18.980;2022-12-29T11:24:25;8.70;83.00
43647;DHT22;56152;49.996;18.980;2022-12-29T11:29:36;8.80;83.00
43647;DHT22;56152;49.996;18.980;2022-12-29T11:34:41;8.80;82.90
43647;DHT22;56152;49.996;18.980;2022-12-29T11:39:49;8.80;82.80
43647;DHT22;56152;49.996;18.980;2022-12-29T11:44:54;8.70;82.90
43647;DHT22;56152;49.996;18.980;2022-12-29T11:49:58;8.60;82.90
43647;DHT22;56152;49.996;18.980;2022-12-29T11:55:04;8.50;83.00
43647;DHT22;56152;49.996;18.980;2022-12-29T12:00:19;8.50;83.10
43647;DHT22;56152;49.996;18.980;2022-12-29T12:05:31;8.40;83.20
43647;DHT22;56152;49.996;18.980;2022-12-29T12:10:38;8.50;83.30
43647;DHT22;56152;49.996;18.980;2022-12-29T12:15:52;8.50;83.20
43647;DHT22;56152;49.996;18.980;2022-12-29T12:20:58;8.50;83.10
43647;DHT22;56152;49.996;18.980;2022-12-29T12:26:09;8.40;82.70
43647;DHT22;56152;49.996;18.980;2022-12-29T12:31:22;8.40;81.50
43647;DHT22;56152;49.996;18.980;2022-12-29T12:36:38;8.40;83.70
43647;DHT22;56152;49.996;18.980;2022-12-29T12:41:51;8.40;83.10
43647;DHT22;56152;49.996;18.980;2022-12-29T12:47:29;8.40;83.10
43647;DHT22;56152;49.996;18.980;2022-12-29T12:52:40;8.50;83.00
43647;DHT22;56152;49.996;18.980;2022-12-29T12:57:53;8.50;82.70
43647;DHT22;56152;49.996;18.980;2022-12-29T13:03:10;8.50;82.60
43647;DHT22;56152;49.996;18.980;2022-12-29T13:08:34;8.50;82.60
43647;DHT22;56152;49.996;18.980;2022-12-29T13:13:54;8.40;82.50
43647;DHT22;56152;49.996;18.980;2022-12-29T13:19:08;8.30;82.70
43647;DHT22;56152;49.996;18.980;2022-12-29T13:24:20;8.20;83.10
43647;DHT22;56152;49.996;18.980;2022-12-29T13:29:35;8.30;82.90
43647;DHT22;56152;49.996;18.980;2022-12-29T13:34:45;8.30;82.40
43647;DHT22;56152;49.996;18.980;2022-12-29T13:39:52;8.20;82.20
43647;DHT22;56152;49.996;18.980;2022-12-29T13:45:02;8.30;82.30
43647;DHT22;56152;49.996;18.980;2022-12-29T13:50:14;8.20;82.40
43647;DHT22;56152;49.996;18.980;2022-12-29T13:55:22;8.20;82.20
43647;DHT22;56152;49.996;18.980;2022-12-29T14:00:28;8.20;82.00
43647;DHT22;56152;49.996;18.980;2022-12-29T14:05:35;8.10;82.10
43647;DHT22;56152;49.996;18.980;2022-12-29T14:10:38;8.10;82.40
43647;DHT22;56152;49.996;18.980;2022-12-29T14:15:52;8.00;82.40
43647;DHT22;56152;49.996;18.980;2022-12-29T14:20:59;8.10;82.60
43647;DHT22;56152;49.996;18.980;2022-12-29T14:26:18;8.10;82.70
43647;DHT22;56152;49.996;18.980;2022-12-29T14:31:37;8.00;82.70
43647;DHT22;56152;49.996;18.980;2022-12-29T14:37:02;7.90;82.50
43647;DHT22;56152;49.996;18.980;2022-12-29T14:42:10;7.90;82.50
43647;DHT22;56152;49.996;18.980;2022-12-29T14:47:31;7.80;82.70
43647;DHT22;56152;49.996;18.980;2022-12-29T14:52:44;7.70;82.70
43647;DHT22;56152;49.996;18.980;2022-12-29T14:57:50;7.60;82.90
43647;DHT22;56152;49.996;18.980;2022-12-29T15:03:02;7.50;83.10
43647;DHT22;56152;49.996;18.980;2022-12-29T15:08:07;7.30;83.50
43647;DHT22;56152;49.996;18.980;2022-12-29T15:13:20;7.10;83.70
43647;DHT22;56152;49.996;18.980;2022-12-29T15:18:25;7.00;84.10
43647;DHT22;56152;49.996;18.980;2022-12-29T15:23:34;6.90;84.30
43647;DHT22;56152;49.996;18.980;2022-12-29T15:28:38;6.90;84.60
43647;DHT22;56152;49.996;18.980;2022-12-29T15:33:42;6.80;84.50
43647;DHT22;56152;49.996;18.980;2022-12-29T15:38:47;6.80;84.60
43647;DHT22;56152;49.996;18.980;2022-12-29T15:43:57;6.80;84.70
43647;DHT22;56152;49.996;18.980;2022-12-29T15:49:05;6.70;84.70
43647;DHT22;56152;49.996;18.980;2022-12-29T15:54:15;6.60;84.90
43647;DHT22;56152;49.996;18.980;2022-12-29T15:59:29;6.60;85.00
43647;DHT22;56152;49.996;18.980;2022-12-29T16:04:32;6.50;85.00
43647;DHT22;56152;49.996;18.980;2022-12-29T16:09:42;6.40;85.40
43647;DHT22;56152;49.996;18.980;2022-12-29T16:14:47;6.40;85.70
43647;DHT22;56152;49.996;18.980;2022-12-29T16:19:52;6.30;85.80
43647;DHT22;56152;49.996;18.980;2022-12-29T16:24:59;6.30;85.80
43647;DHT22;56152;49.996;18.980;2022-12-29T16:30:05;6.20;86.10
43647;DHT22;56152;49.996;18.980;2022-12-29T16:35:16;6.20;86.30
43647;DHT22;56152;49.996;18.980;2022-12-29T16:40:27;6.10;86.40
43647;DHT22;56152;49.996;18.980;2022-12-29T16:46:19;6.10;86.70
43647;DHT22;56152;49.996;18.980;2022-12-29T16:51:29;6.10;86.40
43647;DHT22;56152;49.996;18.980;2022-12-29T16:56:35;6.10;86.50
43647;DHT22;56152;49.996;18.980;2022-12-29T17:01:39;6.00;86.70
43647;DHT22;56152;49.996;18.980;2022-12-29T17:06:42;5.90;86.90
43647;DHT22;56152;49.996;18.980;2022-12-29T17:11:47;5.90;87.10
43647;DHT22;56152;49.996;18.980;2022-12-29T17:16:58;5.80;87.20
43647;DHT22;56152;49.996;18.980;2022-12-29T17:22:02;5.80;87.40
43647;DHT22;56152;49.996;18.980;2022-12-29T17:27:06;5.70;87.60
43647;DHT22;56152;49.996;18.980;2022-12-29T17:32:13;5.60;87.80
43647;DHT22;56152;49.996;18.980;2022-12-29T17:37:32;5.50;87.90
43647;DHT22;56152;49.996;18.980;2022-12-29T17:42:39;5.40;88.20
43647;DHT22;56152;49.996;18.980;2022-12-29T17:47:43;5.30;88.20
43647;DHT22;56152;49.996;18.980;2022-12-29T17:52:50;5.20;88.50
43647;DHT22;56152;49.996;18.980;2022-12-29T17:57:54;5.20;88.80
43647;DHT22;56152;49.996;18.980;2022-12-29T18:03:01;5.10;89.00
43647;DHT22;56152;49.996;18.980;2022-12-29T18:08:03;5.10;89.30
43647;DHT22;56152;49.996;18.980;2022-12-29T18:13:17;5.10;89.30
43647;DHT22;56152;49.996;18.980;2022-12-29T18:18:21;5.10;89.30
43647;DHT22;56152;49.996;18.980;2022-12-29T18:23:25;5.30;89.30
43647;DHT22;56152;49.996;18.980;2022-12-29T18:28:30;5.40;89.00
43647;DHT22;56152;49.996;18.980;2022-12-29T18:33:32;5.40;88.90
43647;DHT22;56152;49.996;18.980;2022-12-29T18:38:34;5.40;88.80
43647;DHT22;56152;49.996;18.980;2022-12-29T18:43:38;5.50;89.60
43647;DHT22;56152;49.996;18.980;2022-12-29T18:48:41;5.50;88.90
43647;DHT22;56152;49.996;18.980;2022-12-29T18:53:43;5.60;88.90
43647;DHT22;56152;49.996;18.980;2022-12-29T18:58:47;5.50;88.80
43647;DHT22;56152;49.996;18.980;2022-12-29T19:03:49;5.40;89.60
43647;DHT22;56152;49.996;18.980;2022-12-29T19:08:51;5.40;89.20
43647;DHT22;56152;49.996;18.980;2022-12-29T19:13:55;5.40;89.30
43647;DHT22;56152;49.996;18.980;2022-12-29T19:18:58;5.50;89.40
43647;DHT22;56152;49.996;18.980;2022-12-29T19:24:01;5.50;89.10
43647;DHT22;56152;49.996;18.980;2022-12-29T19:29:05;5.50;89.00
43647;DHT22;56152;49.996;18.980;2022-12-29T19:34:08;5.50;89.10
43647;DHT22;56152;49.996;18.980;2022-12-29T19:39:13;5.40;89.10
43647;DHT22;56152;49.996;18.980;2022-12-29T19:44:16;5.40;89.20
43647;DHT22;56152;49.996;18.980;2022-12-29T19:49:20;5.40;89.30
43647;DHT22;56152;49.996;18.980;2022-12-29T19:54:23;5.40;89.50
43647;DHT22;56152;49.996;18.980;2022-12-29T19:59:28;5.40;89.40
43647;DHT22;56152;49.996;18.980;2022-12-29T20:04:31;5.40;89.40
43647;DHT22;56152;49.996;18.980;2022-12-29T20:09:33;5.40;89.50
43647;DHT22;56152;49.996;18.980;2022-12-29T20:14:37;5.40;89.50
43647;DHT22;56152;49.996;18.980;2022-12-29T20:19:41;5.40;89.60
43647;DHT22;56152;49.996;18.980;2022-12-29T20:24:44;5.40;89.70
43647;DHT22;56152;49.996;18.980;2022-12-29T20:29:47;5.40;89.80
43647;DHT22;56152;49.996;18.980;2022-12-29T20:34:53;5.30;89.80
43647;DHT22;56152;49.996;18.980;2022-12-29T20:39:59;5.30;89.90
43647;DHT22;56152;49.996;18.980;2022-12-29T20:45:04;5.10;90.00
43647;DHT22;56152;49.996;18.980;2022-12-29T20:50:07;5.00;90.00
43647;DHT22;56152;49.996;18.980;2022-12-29T20:55:14;4.90;90.10
43647;DHT22;56152;49.996;18.980;2022-12-29T21:00:19;4.80;90.20
43647;DHT22;56152;49.996;18.980;2022-12-29T21:05:24;4.80;90.20
43647;DHT22;56152;49.996;18.980;2022-12-29T21:10:27;4.70;90.30
43647;DHT22;56152;49.996;18.980;2022-12-29T21:15:32;4.70;90.30
43647;DHT22;56152;49.996;18.980;2022-12-29T21:20:42;4.60;90.40
43647;DHT22;56152;49.996;18.980;2022-12-29T21:25:44;4.60;90.40
43647;DHT22;56152;49.996;18.980;2022-12-29T21:30:48;4.50;90.50
43647;DHT22;56152;49.996;18.980;2022-12-29T21:35:50;4.40;90.50
43647;DHT22;56152;49.996;18.980;2022-12-29T21:40:52;4.30;90.50
43647;DHT22;56152;49.996;18.980;2022-12-29T21:45:55;4.30;90.60
43647;DHT22;56152;49.996;18.980;2022-12-29T21:51:11;4.20;90.70
43647;DHT22;56152;49.996;18.980;2022-12-29T21:56:31;4.20;90.80
43647;DHT22;56152;49.996;18.980;2022-12-29T22:01:35;4.10;90.80
43647;DHT22;56152;49.996;18.980;2022-12-29T22:06:55;4.10;90.90
43647;DHT22;56152;49.996;18.980;2022-12-29T22:12:15;4.00;90.90
43647;DHT22;56152;49.996;18.980;2022-12-29T22:17:36;4.00;91.00
43647;DHT22;56152;49.996;18.980;2022-12-29T22:22:41;4.00;91.10
43647;DHT22;56152;49.996;18.980;2022-12-29T22:27:44;3.90;91.10
43647;DHT22;56152;49.996;18.980;2022-12-29T22:32:47;3.90;91.10
43647;DHT22;56152;49.996;18.980;2022-12-29T22:37:49;3.80;91.20
43647;DHT22;56152;49.996;18.980;2022-12-29T22:42:51;3.90;91.30
43647;DHT22;56152;49.996;18.980;2022-12-29T22:47:57;3.80;91.30
43647;DHT22;56152;49.996;18.980;2022-12-29T22:52:59;3.80;91.30
43647;DHT22;56152;49.996;18.980;2022-12-29T22:58:01;3.80;91.40
43647;DHT22;56152;49.996;18.980;2022-12-29T23:03:04;3.70;91.40
43647;DHT22;56152;49.996;18.980;2022-12-29T23:08:07;3.60;91.50
43647;DHT22;56152;49.996;18.980;2022-12-29T23:13:09;3.50;91.60
43647;DHT22;56152;49.996;18.980;2022-12-29T23:18:12;3.40;91.70
43647;DHT22;56152;49.996;18.980;2022-12-29T23:23:15;3.40;91.80
43647;DHT22;56152;49.996;18.980;2022-12-29T23:28:37;3.30;91.80
43647;DHT22;56152;49.996;18.980;2022-12-29T23:33:41;3.20;91.90
43647;DHT22;56152;49.996;18.980;2022-12-29T23:38:46;3.20;92.00
43647;DHT22;56152;49.996;18.980;2022-12-29T23:43:50;3.20;92.00
43647;DHT22;56152;49.996;18.980;2022-12-29T23:48:54;3.10;92.10
43647;DHT22;56152;49.996;18.980;2022-12-29T23:53:56;3.00;92.20
43647;DHT22;56152;49.996;18.980;2022-12-29T23:58:58;2.90;92.30
